Time;durP1;ratioP1;P1;durP2;ratioP2;P2;SDS_P1;SDS_P2;PMS_P1;PMS_P2;Temp;Humidity;BMP_temperature;BMP_pressure;BME280_temperature;BME280_humidity;BME280_pressure;Samples;Min_cycle;Max_cycle;Signal;HPM_P1;HPM_P2
2022/08/09 00:01:48;;;;;;;6.97;3.90;;;;;;;;;;6108475;23;20494;-91
2022/08/09 00:04:55;;;;;;;7.53;3.60;;;;;;;;;;6108568;23;20162;-90
2022/08/09 00:08:00;;;;;;;7.65;4.38;;;;;;;;;;6107704;23;20185;-90
2022/08/09 00:11:07;;;;;;;5.88;3.10;;;;;;;;;;6108219;23;20174;-91
2022/08/09 00:14:12;;;;;;;7.32;3.75;;;;;;;;;;6108326;23;20174;-91
2022/08/09 00:17:17;;;;;;;7.70;4.25;;;;;;;;;;6109055;23;20169;-90
2022/08/09 00:20:22;;;;;;;5.75;3.45;;;;;;;;;;6109615;23;20258;-90
2022/08/09 00:23:27;;;;;;;15.25;4.10;;;;;;;;;;6108193;23;20512;-90
2022/08/09 00:26:34;;;;;;;9.80;4.07;;;;;;;;;;6108122;23;20504;-90
2022/08/09 00:29:39;;;;;;;8.27;3.88;;;;;;;;;;6107885;23;20174;-90
2022/08/09 00:32:44;;;;;;;6.47;3.50;;;;;;;;;;6108779;23;20153;-90
2022/08/09 00:35:49;;;;;;;6.47;3.85;;;;;;;;;;6108679;23;20241;-90
2022/08/09 00:38:54;;;;;;;8.82;3.92;;;;;;;;;;6108611;23;20273;-89
2022/08/09 00:42:01;;;;;;;8.80;4.03;;;;;;;;;;6109457;23;20247;-90
2022/08/09 00:45:06;;;;;;;6.40;3.60;;;;;;;;;;6107492;23;20226;-90
2022/08/09 00:48:12;;;;;;;4.43;3.67;;;;;;;;;;6107515;23;20169;-92
2022/08/09 00:51:18;;;;;;;11.80;4.10;;;;;;;;;;6107281;23;20165;-90
2022/08/09 00:54:24;;;;;;;12.63;4.03;;;;;;;;;;6108284;23;20174;-89
2022/08/09 00:57:31;;;;;;;8.02;3.92;;;;;;;;;;6109309;23;20293;-91
2022/08/09 01:00:38;;;;;;;5.72;3.75;;;;;;;;;;6109416;23;20602;-91
2022/08/09 01:03:53;;;;;;;4.55;3.42;;;;;;;;;;6107693;23;20253;-90
2022/08/09 01:07:02;;;;;;;7.70;3.55;;;;;;;;;;6109103;23;20254;-89
2022/08/09 01:10:11;;;;;;;7.28;3.90;;;;;;;;;;6107322;23;20166;-90
2022/08/09 01:13:20;;;;;;;6.28;4.00;;;;;;;;;;6108946;23;20626;-91
2022/08/09 01:16:27;;;;;;;5.60;3.85;;;;;;;;;;6109242;23;20193;-90
2022/08/09 01:19:38;;;;;;;10.00;4.20;;;;;;;;;;6107408;23;20174;-89
2022/08/09 01:22:54;;;;;;;8.35;3.55;;;;;;;;;;6109133;23;20177;-90
2022/08/09 01:26:04;;;;;;;5.35;4.07;;;;;;;;;;6111188;23;20170;-91
2022/08/09 01:29:13;;;;;;;7.50;3.80;;;;;;;;;;6112347;23;20214;-90
2022/08/09 01:32:19;;;;;;;6.43;3.95;;;;;;;;;;6111407;23;20302;-91
2022/08/09 01:35:26;;;;;;;7.03;3.70;;;;;;;;;;6110280;23;20274;-91
2022/08/09 01:38:32;;;;;;;5.10;3.67;;;;;;;;;;6110595;23;20200;-91
2022/08/09 01:56:18;;;;;;;7.13;3.85;;;;;;;;;;6081291;23;20222;-91
2022/08/09 01:59:24;;;;;;;7.60;3.83;;;;;;;;;;6123506;23;20190;-90
2022/08/09 02:02:30;;;;;;;6.00;3.60;;;;;;;;;;6124774;23;20157;-90
2022/08/09 02:05:36;;;;;;;8.20;3.80;;;;;;;;;;6125966;23;20169;-92
2022/08/09 02:08:43;;;;;;;5.45;4.03;;;;;;;;;;6125445;23;20217;-91
2022/08/09 02:11:49;;;;;;;5.55;3.80;;;;;;;;;;6123714;23;20241;-92
2022/08/09 02:14:55;;;;;;;8.98;4.00;;;;;;;;;;6124821;23;20171;-91
2022/08/09 02:18:01;;;;;;;8.23;3.97;;;;;;;;;;6123517;23;20340;-90
2022/08/09 02:21:09;;;;;;;5.55;3.95;;;;;;;;;;6123697;23;20185;-92
2022/08/09 02:24:17;;;;;;;5.20;3.75;;;;;;;;;;6124179;23;20173;-91
2022/08/09 02:27:28;;;;;;;7.55;4.03;;;;;;;;;;6125492;23;20252;-91
2022/08/09 02:30:37;;;;;;;10.45;4.07;;;;;;;;;;6124968;23;20169;-90
2022/08/09 02:33:44;;;;;;;5.82;3.63;;;;;;;;;;6124132;23;20197;-91
2022/08/09 02:36:52;;;;;;;6.05;3.85;;;;;;;;;;6122872;23;20240;-88
2022/08/09 02:39:59;;;;;;;7.53;4.20;;;;;;;;;;6124176;23;20173;-89
2022/08/09 02:43:09;;;;;;;7.57;3.80;;;;;;;;;;6124709;23;20670;-91
2022/08/09 02:46:18;;;;;;;5.90;3.42;;;;;;;;;;6123533;23;20181;-91
2022/08/09 02:49:23;;;;;;;9.00;3.30;;;;;;;;;;6124142;23;20209;-92
2022/08/09 02:52:30;;;;;;;5.80;3.55;;;;;;;;;;6121311;23;20169;-91
2022/08/09 02:55:36;;;;;;;5.45;3.80;;;;;;;;;;6125700;23;20181;-90
2022/08/09 02:58:43;;;;;;;7.88;3.55;;;;;;;;;;6125873;23;20233;-90
2022/08/09 03:01:49;;;;;;;10.70;4.28;;;;;;;;;;6125988;23;20233;-91
2022/08/09 03:04:55;;;;;;;9.27;4.07;;;;;;;;;;6126397;23;20217;-91
2022/08/09 03:08:02;;;;;;;6.93;4.25;;;;;;;;;;6126924;23;20172;-92
2022/08/09 03:11:08;;;;;;;6.20;3.70;;;;;;;;;;6126490;23;20153;-90
2022/08/09 03:14:16;;;;;;;9.38;4.00;;;;;;;;;;6125870;23;20173;-90
2022/08/09 03:17:22;;;;;;;10.70;4.10;;;;;;;;;;6125299;23;20333;-89
2022/08/09 03:20:28;;;;;;;8.90;4.00;;;;;;;;;;6125697;23;20160;-90
2022/08/09 03:23:33;;;;;;;5.47;3.97;;;;;;;;;;6126849;23;20234;-92
2022/08/09 03:26:39;;;;;;;5.20;3.72;;;;;;;;;;6125878;23;20169;-91
2022/08/09 03:29:46;;;;;;;7.80;4.30;;;;;;;;;;6125579;23;20172;-90
2022/08/09 03:32:52;;;;;;;7.22;4.07;;;;;;;;;;6127441;23;20193;-90
2022/08/09 03:35:57;;;;;;;8.20;4.05;;;;;;;;;;6126736;23;20309;-90
2022/08/09 03:39:03;;;;;;;8.73;3.70;;;;;;;;;;6128114;23;20169;-91
2022/08/09 03:42:08;;;;;;;8.48;3.67;;;;;;;;;;6124541;23;20242;-90
2022/08/09 03:45:20;;;;;;;6.78;4.28;;;;;;;;;;6127014;23;20156;-90
2022/08/09 03:48:26;;;;;;;7.75;3.70;;;;;;;;;;6126813;23;20178;-92
2022/08/09 03:51:32;;;;;;;4.95;3.85;;;;;;;;;;6126542;23;20257;-91
2022/08/09 03:54:38;;;;;;;6.00;3.47;;;;;;;;;;6126937;23;20153;-90
2022/08/09 03:57:44;;;;;;;8.02;3.80;;;;;;;;;;6124997;23;20212;-91
2022/08/09 04:01:20;;;;;;;4.40;3.53;;;;;;;;;;6126030;23;20161;-92
2022/08/09 04:04:28;;;;;;;8.82;4.40;;;;;;;;;;6124209;23;20621;-90
2022/08/09 04:07:34;;;;;;;7.43;4.38;;;;;;;;;;6126538;23;20154;-91
2022/08/09 04:10:39;;;;;;;8.77;3.80;;;;;;;;;;6125672;23;20165;-91
2022/08/09 04:13:44;;;;;;;5.55;3.88;;;;;;;;;;6124876;23;20169;-92
2022/08/09 04:16:50;;;;;;;8.50;3.60;;;;;;;;;;6123157;23;20749;-91
2022/08/09 04:19:57;;;;;;;4.78;3.80;;;;;;;;;;6123318;23;20245;-90
2022/08/09 04:23:02;;;;;;;7.25;4.25;;;;;;;;;;6123687;23;20173;-91
2022/08/09 04:26:07;;;;;;;10.05;4.00;;;;;;;;;;6123091;23;20173;-90
2022/08/09 04:29:13;;;;;;;6.03;3.85;;;;;;;;;;6121978;23;20169;-91
2022/08/09 04:32:18;;;;;;;8.32;3.85;;;;;;;;;;6141026;23;20193;-91
2022/08/09 04:35:25;;;;;;;7.28;3.78;;;;;;;;;;6124567;23;20214;-91
2022/08/09 04:38:30;;;;;;;11.02;4.05;;;;;;;;;;6122070;23;20241;-89
2022/08/09 04:41:36;;;;;;;6.80;3.80;;;;;;;;;;6123732;23;20528;-90
2022/08/09 04:44:41;;;;;;;7.53;4.45;;;;;;;;;;6122548;23;20543;-90
2022/08/09 04:47:46;;;;;;;6.95;4.20;;;;;;;;;;6120770;23;20173;-90
2022/08/09 04:50:53;;;;;;;13.65;4.20;;;;;;;;;;6122656;23;20281;-91
2022/08/09 04:53:58;;;;;;;11.55;4.18;;;;;;;;;;6122368;23;20169;-90
2022/08/09 04:57:04;;;;;;;8.23;5.35;;;;;;;;;;6120951;23;20228;-91
2022/08/09 05:00:10;;;;;;;6.97;3.72;;;;;;;;;;6122466;23;20156;-90
2022/08/09 05:03:15;;;;;;;7.10;3.92;;;;;;;;;;6121024;23;20177;-89
2022/08/09 05:06:25;;;;;;;4.93;3.50;;;;;;;;;;6123847;23;20157;-90
2022/08/09 05:09:30;;;;;;;6.20;3.30;;;;;;;;;;6122811;23;20185;-91
2022/08/09 05:12:35;;;;;;;5.75;3.50;;;;;;;;;;6122638;23;20512;-92
2022/08/09 05:15:41;;;;;;;6.40;3.92;;;;;;;;;;6122309;23;20189;-91
2022/08/09 05:18:50;;;;;;;6.43;3.90;;;;;;;;;;6122576;23;20180;-91
2022/08/09 05:21:56;;;;;;;5.22;3.58;;;;;;;;;;6123541;23;20149;-91
2022/08/09 05:25:01;;;;;;;7.95;3.63;;;;;;;;;;6123127;23;20297;-91
2022/08/09 05:28:07;;;;;;;6.38;3.47;;;;;;;;;;6122281;23;20168;-90
2022/08/09 05:31:13;;;;;;;11.52;3.80;;;;;;;;;;6123709;23;20224;-90
2022/08/09 05:34:18;;;;;;;8.30;4.00;;;;;;;;;;6122756;23;20173;-90
2022/08/09 05:37:25;;;;;;;5.70;3.38;;;;;;;;;;6123638;23;20184;-90
2022/08/09 06:50:56;;;;;;;9.27;2.13;;;;;;;;;;6133135;23;20245;-90
2022/08/09 06:54:01;;;;;;;8.32;2.30;;;;;;;;;;6126388;23;20186;-90
2022/08/09 06:57:07;;;;;;;11.35;2.13;;;;;;;;;;6125707;23;20192;-91
2022/08/09 07:00:13;;;;;;;6.13;2.05;;;;;;;;;;6126499;23;20177;-90
2022/08/09 07:03:18;;;;;;;6.50;2.15;;;;;;;;;;6126744;23;20168;-92
2022/08/09 07:06:27;;;;;;;3.45;2.03;;;;;;;;;;6124272;23;20221;-90
2022/08/09 07:09:33;;;;;;;12.82;3.47;;;;;;;;;;6124784;23;20200;-91
2022/08/09 07:12:38;;;;;;;8.88;2.00;;;;;;;;;;6125641;23;20252;-88
2022/08/09 07:15:44;;;;;;;5.25;2.25;;;;;;;;;;6127196;23;20173;-90
2022/08/09 07:18:49;;;;;;;5.85;2.03;;;;;;;;;;6126688;23;20213;-90
2022/08/09 07:21:56;;;;;;;55.53;9.43;;;;;;;;;;6126268;23;20169;-91
2022/08/09 07:25:02;;;;;;;16.33;3.65;;;;;;;;;;6124045;23;20173;-90
2022/08/09 07:28:08;;;;;;;6.05;1.70;;;;;;;;;;6123000;23;20226;-91
2022/08/09 07:31:14;;;;;;;5.85;2.10;;;;;;;;;;6123894;23;20169;-89
2022/08/09 07:34:20;;;;;;;7.82;1.90;;;;;;;;;;6126079;23;20182;-91
2022/08/09 07:37:27;;;;;;;5.07;1.70;;;;;;;;;;6125147;23;20268;-91
2022/08/09 07:40:32;;;;;;;3.38;1.90;;;;;;;;;;6124684;23;20169;-91
2022/08/09 07:43:37;;;;;;;5.47;1.80;;;;;;;;;;6123545;23;20173;-90
2022/08/09 07:46:46;;;;;;;5.72;2.33;;;;;;;;;;6120869;23;20169;-93
2022/08/09 07:49:51;;;;;;;4.22;1.60;;;;;;;;;;6119430;23;20245;-90
2022/08/09 07:52:59;;;;;;;4.22;2.00;;;;;;;;;;6122145;23;20482;-91
2022/08/09 07:56:05;;;;;;;6.80;3.72;;;;;;;;;;6120215;23;20172;-90
2022/08/09 07:59:10;;;;;;;10.32;1.83;;;;;;;;;;6121954;23;20165;-91
2022/08/09 08:02:16;;;;;;;6.38;1.95;;;;;;;;;;6122781;23;20192;-90
2022/08/09 08:05:22;;;;;;;3.65;1.70;;;;;;;;;;6122130;23;20183;-91
2022/08/09 08:08:29;;;;;;;9.20;1.90;;;;;;;;;;6121645;23;20638;-90
2022/08/09 08:11:37;;;;;;;16.63;2.15;;;;;;;;;;6121960;23;20176;-92
2022/08/09 08:14:42;;;;;;;4.57;2.53;;;;;;;;;;6121211;23;20173;-90
2022/08/09 08:18:02;;;;;;;3.42;1.48;;;;;;;;;;6123949;23;20271;-89
2022/08/09 08:21:07;;;;;;;5.57;1.40;;;;;;;;;;6120499;23;20244;-91
2022/08/09 08:24:14;;;;;;;3.40;1.25;;;;;;;;;;6121005;23;20180;-91
2022/08/09 08:27:19;;;;;;;3.15;1.45;;;;;;;;;;6122015;23;20172;-92
2022/08/09 08:30:24;;;;;;;4.75;1.42;;;;;;;;;;6123370;23;20176;-92
2022/08/09 08:33:30;;;;;;;9.43;1.35;;;;;;;;;;6122726;23;20168;-91
2022/08/09 08:36:35;;;;;;;2.20;1.00;;;;;;;;;;6124824;23;20176;-92
2022/08/09 08:39:45;;;;;;;4.05;1.15;;;;;;;;;;6121926;23;20169;-92
2022/08/09 08:42:52;;;;;;;4.95;0.95;;;;;;;;;;6122198;23;20179;-91
2022/08/09 08:45:59;;;;;;;4.05;1.00;;;;;;;;;;6122719;23;20228;-91
2022/08/09 08:49:06;;;;;;;2.60;1.27;;;;;;;;;;6121623;23;20597;-92
2022/08/09 08:52:12;;;;;;;5.93;1.40;;;;;;;;;;6118603;23;20172;-91
2022/08/09 08:55:19;;;;;;;6.22;1.30;;;;;;;;;;6120749;23;20241;-91
2022/08/09 08:58:28;;;;;;;2.38;1.00;;;;;;;;;;6123282;23;20196;-91
2022/08/09 09:01:34;;;;;;;6.38;1.20;;;;;;;;;;6120514;23;20177;-91
2022/08/09 09:04:39;;;;;;;26.98;1.63;;;;;;;;;;6123542;23;20223;-92
2022/08/09 09:07:49;;;;;;;3.47;1.10;;;;;;;;;;6120516;23;20168;-91
2022/08/09 09:10:56;;;;;;;3.80;1.83;;;;;;;;;;6121265;23;20156;-91
2022/08/09 09:14:03;;;;;;;18.48;1.88;;;;;;;;;;6121134;23;20252;-90
2022/08/09 09:17:08;;;;;;;7.45;1.83;;;;;;;;;;6124310;23;20191;-89
2022/08/09 09:20:15;;;;;;;10.82;1.83;;;;;;;;;;6122394;23;20176;-91
2022/08/09 09:23:31;;;;;;;10.32;2.38;;;;;;;;;;6123314;23;20176;-90
2022/08/09 09:26:41;;;;;;;3.38;1.30;;;;;;;;;;6125380;23;20153;-92
2022/08/09 09:29:47;;;;;;;3.03;1.30;;;;;;;;;;6123168;23;20216;-91
2022/08/09 09:33:03;;;;;;;2.38;1.27;;;;;;;;;;6123425;23;20171;-91
2022/08/09 09:36:10;;;;;;;4.35;1.30;;;;;;;;;;6124132;23;20172;-91
2022/08/09 09:39:17;;;;;;;3.53;1.30;;;;;;;;;;6122331;23;20172;-91
2022/08/09 09:42:25;;;;;;;5.35;1.52;;;;;;;;;;6123099;23;20589;-92
2022/08/09 09:45:30;;;;;;;3.17;1.27;;;;;;;;;;6123101;23;20165;-92
2022/08/09 09:48:36;;;;;;;18.02;1.75;;;;;;;;;;6121514;23;20240;-92
2022/08/09 09:51:41;;;;;;;2.47;1.10;;;;;;;;;;6122199;23;20165;-91
2022/08/09 09:54:47;;;;;;;3.28;1.00;;;;;;;;;;6122717;23;20169;-92
2022/08/09 09:58:03;;;;;;;4.07;1.25;;;;;;;;;;6123531;23;20196;-92
2022/08/09 10:01:17;;;;;;;7.97;1.48;;;;;;;;;;6125593;23;20223;-90
2022/08/09 10:04:24;;;;;;;12.80;2.20;;;;;;;;;;6127692;23;20177;-91
2022/08/09 10:07:29;;;;;;;2.42;1.00;;;;;;;;;;6127917;23;20172;-92
2022/08/09 10:10:36;;;;;;;7.75;1.23;;;;;;;;;;6127878;23;20216;-94
2022/08/09 10:13:44;;;;;;;1.60;1.00;;;;;;;;;;6127330;23;20193;-93
2022/08/09 10:16:50;;;;;;;3.17;0.90;;;;;;;;;;6128078;23;20168;-92
2022/08/09 10:19:59;;;;;;;2.65;1.40;;;;;;;;;;6127031;23;20172;-92
2022/08/09 10:23:14;;;;;;;9.50;1.60;;;;;;;;;;6125834;23;20180;-93
2022/08/09 10:26:22;;;;;;;8.20;1.65;;;;;;;;;;6126859;23;20169;-91
2022/08/09 10:29:33;;;;;;;1.38;0.80;;;;;;;;;;6129218;23;20230;-92
2022/08/09 10:32:40;;;;;;;8.30;1.23;;;;;;;;;;6129411;23;20168;-92
2022/08/09 10:35:45;;;;;;;4.32;0.98;;;;;;;;;;6128273;23;20176;-92
2022/08/09 10:38:51;;;;;;;2.97;1.63;;;;;;;;;;6126349;23;20196;-92
2022/08/09 10:41:57;;;;;;;3.00;2.05;;;;;;;;;;6125923;23;20244;-91
2022/08/09 10:45:06;;;;;;;5.97;1.35;;;;;;;;;;6125225;23;20161;-92
2022/08/09 10:48:16;;;;;;;4.20;1.20;;;;;;;;;;6126367;23;20231;-91
2022/08/09 10:51:27;;;;;;;4.70;1.20;;;;;;;;;;6126628;23;20192;-91
2022/08/09 10:54:32;;;;;;;1.10;1.00;;;;;;;;;;6126140;23;20249;-91
2022/08/09 10:57:37;;;;;;;1.35;0.90;;;;;;;;;;6124501;23;20195;-91
2022/08/09 11:00:45;;;;;;;2.10;1.10;;;;;;;;;;6124753;23;20156;-90
2022/08/09 11:04:08;;;;;;;8.10;1.55;;;;;;;;;;6125333;23;20164;-90
2022/08/09 11:07:30;;;;;;;1.52;1.00;;;;;;;;;;6124274;23;20180;-92
2022/08/09 11:10:55;;;;;;;2.67;1.02;;;;;;;;;;6122656;23;20180;-92
2022/08/09 11:14:19;;;;;;;5.55;1.20;;;;;;;;;;6123221;23;20173;-91
2022/08/09 11:17:51;;;;;;;2.47;1.20;;;;;;;;;;6122423;23;20168;-91
2022/08/09 11:21:00;;;;;;;2.20;1.00;;;;;;;;;;6124943;23;20181;-91
2022/08/09 11:24:06;;;;;;;2.20;1.10;;;;;;;;;;6125716;23;20183;-90
2022/08/09 11:27:26;;;;;;;4.55;1.08;;;;;;;;;;6124437;23;20169;-92
2022/08/09 11:30:32;;;;;;;2.00;1.10;;;;;;;;;;6124720;23;20226;-90
2022/08/09 11:33:44;;;;;;;3.28;1.00;;;;;;;;;;6123151;23;20177;-91
2022/08/09 11:36:52;;;;;;;2.30;1.40;;;;;;;;;;6122943;23;20176;-91
2022/08/09 11:40:01;;;;;;;2.53;1.15;;;;;;;;;;6121738;23;20173;-91
2022/08/09 11:43:06;;;;;;;2.33;1.10;;;;;;;;;;6121773;23;20244;-92
2022/08/09 11:51:08;;;;;;;3.65;1.15;;;;;;;;;;6141871;23;20192;-92
2022/08/09 11:54:18;;;;;;;3.22;1.00;;;;;;;;;;6128636;23;20209;-92
2022/08/09 11:57:40;;;;;;;3.17;1.23;;;;;;;;;;6124074;23;20628;-92
2022/08/09 12:00:49;;;;;;;2.10;1.20;;;;;;;;;;6123369;23;20177;-92
2022/08/09 12:03:59;;;;;;;3.80;1.25;;;;;;;;;;6122537;23;20597;-90
2022/08/09 12:07:05;;;;;;;5.40;2.33;;;;;;;;;;6120833;23;20173;-91
2022/08/09 12:10:12;;;;;;;3.80;1.27;;;;;;;;;;6120177;23;20504;-92
2022/08/09 12:13:29;;;;;;;4.57;3.20;;;;;;;;;;6123060;23;20172;-92
2022/08/09 12:16:36;;;;;;;3.53;1.30;;;;;;;;;;6126009;23;20177;-91
2022/08/09 12:19:42;;;;;;;2.50;1.15;;;;;;;;;;6120758;23;20200;-91
2022/08/09 12:22:52;;;;;;;2.42;1.00;;;;;;;;;;6121011;23;20180;-92
2022/08/09 12:26:01;;;;;;;1.77;0.90;;;;;;;;;;6120912;23;20168;-92
2022/08/09 12:29:07;;;;;;;2.22;1.08;;;;;;;;;;6122088;23;20177;-92
2022/08/09 12:32:13;;;;;;;4.03;1.23;;;;;;;;;;6122441;23;20188;-90
2022/08/09 12:35:18;;;;;;;2.28;1.23;;;;;;;;;;6121397;23;20168;-93
2022/08/09 12:38:27;;;;;;;2.05;1.10;;;;;;;;;;6121790;23;20196;-92
2022/08/09 12:41:35;;;;;;;2.25;1.17;;;;;;;;;;6122107;23;20172;-94
2022/08/09 12:48:55;;;;;;;2.40;1.00;;;;;;;;;;6124480;23;20160;-92
2022/08/09 12:52:37;;;;;;;1.33;1.00;;;;;;;;;;6144156;23;20196;-91
2022/08/09 12:55:44;;;;;;;3.33;1.10;;;;;;;;;;6121633;23;20471;-91
2022/08/09 12:59:06;;;;;;;1.63;1.17;;;;;;;;;;6118921;23;20177;-90
2022/08/09 13:02:13;;;;;;;2.63;1.23;;;;;;;;;;6119391;23;20502;-90
2022/08/09 13:05:18;;;;;;;3.13;1.10;;;;;;;;;;6120146;23;20192;-91
2022/08/09 13:08:24;;;;;;;1.80;1.00;;;;;;;;;;6119858;23;20173;-91
2022/08/09 13:11:30;;;;;;;1.58;1.20;;;;;;;;;;6118926;23;20173;-92
2022/08/09 13:14:36;;;;;;;3.97;1.60;;;;;;;;;;6139039;23;20217;-90
2022/08/09 13:17:44;;;;;;;4.03;1.40;;;;;;;;;;6123344;23;20169;-91
2022/08/09 13:20:49;;;;;;;4.57;1.73;;;;;;;;;;6121336;23;20234;-92
2022/08/09 13:23:59;;;;;;;4.70;1.35;;;;;;;;;;6121005;23;20172;-91
2022/08/09 13:27:04;;;;;;;2.55;1.02;;;;;;;;;;6120004;23;20169;-91
2022/08/09 13:30:12;;;;;;;2.97;1.45;;;;;;;;;;6121170;23;20172;-90
2022/08/09 13:33:27;;;;;;;3.00;1.20;;;;;;;;;;6119701;23;20192;-90
2022/08/09 13:36:34;;;;;;;4.70;1.85;;;;;;;;;;6119785;23;20244;-91
2022/08/09 13:39:39;;;;;;;2.20;1.38;;;;;;;;;;6119908;23;20200;-90
2022/08/09 13:42:47;;;;;;;2.53;1.13;;;;;;;;;;6119635;23;20678;-91
2022/08/09 13:45:52;;;;;;;2.33;1.30;;;;;;;;;;6119171;23;20175;-91
2022/08/09 13:48:59;;;;;;;3.13;1.33;;;;;;;;;;6121887;23;20168;-91
2022/08/09 13:52:05;;;;;;;1.60;1.17;;;;;;;;;;6119348;23;20664;-91
2022/08/09 13:55:11;;;;;;;2.38;1.40;;;;;;;;;;6120116;23;20607;-90
2022/08/09 13:58:16;;;;;;;3.53;1.33;;;;;;;;;;6118309;23;20192;-90
2022/08/09 14:01:21;;;;;;;4.95;1.50;;;;;;;;;;6121642;23;20196;-91
2022/08/09 14:04:28;;;;;;;3.58;1.40;;;;;;;;;;6121767;23;20249;-89
2022/08/09 14:07:33;;;;;;;3.15;1.20;;;;;;;;;;6121116;23;20173;-91
2022/08/09 14:10:39;;;;;;;4.20;1.48;;;;;;;;;;6119651;23;20169;-90
2022/08/09 14:13:44;;;;;;;3.15;1.27;;;;;;;;;;6120887;23;20172;-91
2022/08/09 14:16:49;;;;;;;2.50;1.52;;;;;;;;;;6118936;23;20172;-90
2022/08/09 14:19:56;;;;;;;5.53;1.30;;;;;;;;;;6118754;23;20196;-89
2022/08/09 14:23:01;;;;;;;2.20;1.20;;;;;;;;;;6119961;23;20240;-90
2022/08/09 14:26:06;;;;;;;2.47;1.23;;;;;;;;;;6118771;23;20632;-89
2022/08/09 14:29:17;;;;;;;4.72;1.42;;;;;;;;;;6121175;23;20181;-90
2022/08/09 14:32:25;;;;;;;5.75;1.55;;;;;;;;;;6120571;23;20172;-89
2022/08/09 14:35:45;;;;;;;2.65;1.20;;;;;;;;;;6118622;23;20225;-87
2022/08/09 14:38:52;;;;;;;3.20;1.20;;;;;;;;;;6117925;23;20247;-89
2022/08/09 14:42:00;;;;;;;2.88;1.40;;;;;;;;;;6120687;23;20171;-91
2022/08/09 14:45:06;;;;;;;2.83;1.33;;;;;;;;;;6119338;23;20273;-90
2022/08/09 14:48:11;;;;;;;2.13;1.20;;;;;;;;;;6121665;23;20217;-90
2022/08/09 14:51:17;;;;;;;3.88;1.40;;;;;;;;;;6123274;23;20180;-90
2022/08/09 14:54:23;;;;;;;4.35;1.38;;;;;;;;;;6122084;23;20177;-89
2022/08/09 14:57:29;;;;;;;3.17;1.60;;;;;;;;;;6121731;23;20217;-89
2022/08/09 15:00:35;;;;;;;4.53;1.38;;;;;;;;;;6121924;23;20169;-90
2022/08/09 15:03:41;;;;;;;7.63;1.75;;;;;;;;;;6119814;23;20173;-89
2022/08/09 15:06:47;;;;;;;4.63;1.55;;;;;;;;;;6121215;23;20176;-90
2022/08/09 15:09:54;;;;;;;3.75;1.55;;;;;;;;;;6121486;23;20296;-89
2022/08/09 15:12:59;;;;;;;2.75;1.20;;;;;;;;;;6122336;23;20222;-87
2022/08/09 15:16:05;;;;;;;5.65;1.70;;;;;;;;;;6122039;23;20168;-88
2022/08/09 15:19:11;;;;;;;6.05;2.15;;;;;;;;;;6123103;23;20201;-89
2022/08/09 15:22:16;;;;;;;2.05;1.23;;;;;;;;;;6120520;23;20602;-88
2022/08/09 15:25:26;;;;;;;3.80;1.35;;;;;;;;;;6122288;23;20283;-89
2022/08/09 15:28:32;;;;;;;3.05;1.40;;;;;;;;;;6126853;23;20177;-90
2022/08/09 15:31:39;;;;;;;4.22;1.30;;;;;;;;;;6126355;23;20177;-89
2022/08/09 15:34:45;;;;;;;5.22;1.60;;;;;;;;;;6125653;23;20173;-89
2022/08/09 15:37:51;;;;;;;1.70;1.30;;;;;;;;;;6123073;23;20604;-90
2022/08/09 15:40:57;;;;;;;5.80;1.58;;;;;;;;;;6120352;23;20244;-90
2022/08/09 15:44:02;;;;;;;3.90;1.60;;;;;;;;;;6120971;23;20640;-89
2022/08/09 15:47:08;;;;;;;2.60;1.48;;;;;;;;;;6121520;23;20174;-89
2022/08/09 15:50:14;;;;;;;2.78;1.50;;;;;;;;;;6120212;23;20173;-91
2022/08/09 15:53:24;;;;;;;2.47;1.40;;;;;;;;;;6121304;23;20350;-90
2022/08/09 15:56:31;;;;;;;2.97;1.40;;;;;;;;;;6120672;23;20176;-89
2022/08/09 15:59:36;;;;;;;4.28;1.58;;;;;;;;;;6120543;23;20192;-90
2022/08/09 16:02:41;;;;;;;5.70;1.42;;;;;;;;;;6120830;23;20243;-89
2022/08/09 16:05:46;;;;;;;4.88;1.50;;;;;;;;;;6121132;23;20169;-88
2022/08/09 16:08:52;;;;;;;3.65;1.20;;;;;;;;;;6121491;23;20165;-89
2022/08/09 16:11:58;;;;;;;2.20;1.45;;;;;;;;;;6121575;23;20169;-88
2022/08/09 16:15:03;;;;;;;2.05;1.00;;;;;;;;;;6123470;23;20172;-89
2022/08/09 16:18:08;;;;;;;3.72;1.42;;;;;;;;;;6123055;23;20177;-89
2022/08/09 16:21:14;;;;;;;6.13;1.70;;;;;;;;;;6119735;23;20165;-88
2022/08/09 16:24:19;;;;;;;4.35;1.52;;;;;;;;;;6121464;23;20173;-89
2022/08/09 16:27:29;;;;;;;3.33;1.50;;;;;;;;;;6104108;23;20169;-89
2022/08/09 16:30:35;;;;;;;3.95;1.63;;;;;;;;;;6120703;23;20170;-89
2022/08/09 16:33:42;;;;;;;3.30;1.50;;;;;;;;;;6120183;23;20687;-91
2022/08/09 16:36:48;;;;;;;5.78;1.48;;;;;;;;;;6120252;23;20172;-90
2022/08/09 16:39:54;;;;;;;9.40;1.77;;;;;;;;;;6122179;23;20197;-86
2022/08/09 16:43:01;;;;;;;5.72;1.50;;;;;;;;;;6121650;23;20681;-90
2022/08/09 16:46:06;;;;;;;9.00;1.75;;;;;;;;;;6120057;23;20173;-88
2022/08/09 16:49:12;;;;;;;3.33;1.45;;;;;;;;;;6119723;23;20213;-90
2022/08/09 16:52:17;;;;;;;2.40;1.30;;;;;;;;;;6121785;23;20191;-88
2022/08/09 16:55:22;;;;;;;3.13;1.50;;;;;;;;;;6120273;23;20328;-89
2022/08/09 16:58:29;;;;;;;8.77;2.00;;;;;;;;;;6121868;23;20297;-88
2022/08/09 17:01:39;;;;;;;8.73;4.40;;;;;;;;;;6121305;23;20209;-91
2022/08/09 17:04:45;;;;;;;3.60;1.73;;;;;;;;;;6122645;23;20193;-88
2022/08/09 17:07:50;;;;;;;3.85;1.50;;;;;;;;;;6120889;23;20172;-87
2022/08/09 17:10:55;;;;;;;2.17;1.48;;;;;;;;;;6116949;23;20150;-89
2022/08/09 17:14:02;;;;;;;3.17;1.52;;;;;;;;;;6118287;23;20193;-90
2022/08/09 17:17:07;;;;;;;3.65;1.65;;;;;;;;;;6119039;23;20223;-88
2022/08/09 17:20:12;;;;;;;6.30;1.90;;;;;;;;;;6135828;23;20375;-88
2022/08/09 17:23:21;;;;;;;4.00;1.83;;;;;;;;;;6115726;23;20176;-89
2022/08/09 17:26:26;;;;;;;2.00;1.45;;;;;;;;;;6116461;23;20173;-90
2022/08/09 17:29:32;;;;;;;5.55;1.80;;;;;;;;;;6116614;23;20632;-89
2022/08/09 17:32:37;;;;;;;3.10;1.85;;;;;;;;;;6114495;23;20173;-89
2022/08/09 17:35:43;;;;;;;3.58;1.80;;;;;;;;;;6117240;23;20173;-89
2022/08/09 17:38:48;;;;;;;4.93;1.52;;;;;;;;;;6117216;23;20173;-89
2022/08/09 17:41:53;;;;;;;3.05;1.70;;;;;;;;;;6117387;23;20249;-89
2022/08/09 17:49:52;;;;;;;3.72;1.70;;;;;;;;;;6137099;23;20233;-89
2022/08/09 17:53:00;;;;;;;12.30;2.00;;;;;;;;;;6117887;23;20196;-89
2022/08/09 17:56:06;;;;;;;8.38;1.95;;;;;;;;;;6127504;23;20189;-90
2022/08/09 17:59:21;;;;;;;3.33;1.77;;;;;;;;;;6124465;23;20177;-89
2022/08/09 18:02:27;;;;;;;5.25;2.10;;;;;;;;;;6121490;23;20629;-89
2022/08/09 18:05:31;;;;;;;3.05;1.83;;;;;;;;;;6121804;23;20169;-88
2022/08/09 23:02:00;;;;;;;8.88;3.38;;;;;;;;;;6116933;23;20727;-92
2022/08/09 23:05:06;;;;;;;7.25;3.45;;;;;;;;;;6127022;23;20645;-90
2022/08/09 23:11:35;;;;;;;8.95;3.40;;;;;;;;;;6126189;23;20173;-89
2022/08/09 23:14:40;;;;;;;10.70;3.63;;;;;;;;;;6127258;23;20169;-91
2022/08/09 23:17:47;;;;;;;10.23;3.38;;;;;;;;;;6126669;23;20608;-91
2022/08/09 23:20:52;;;;;;;7.50;2.92;;;;;;;;;;6127370;23;20513;-88
2022/08/09 23:23:58;;;;;;;8.75;3.25;;;;;;;;;;6128359;23;20169;-90
2022/08/09 23:27:03;;;;;;;6.15;3.00;;;;;;;;;;6129006;23;20240;-91
2022/08/09 23:30:09;;;;;;;8.82;3.13;;;;;;;;;;6126389;23;20528;-90
2022/08/09 23:33:15;;;;;;;6.85;3.15;;;;;;;;;;6126982;23;20282;-88
2022/08/09 23:36:22;;;;;;;5.72;3.00;;;;;;;;;;6129807;23;20194;-90
2022/08/09 23:39:27;;;;;;;6.80;3.10;;;;;;;;;;6128878;23;20165;-89
2022/08/09 23:42:36;;;;;;;9.40;3.50;;;;;;;;;;6130375;23;20189;-89
2022/08/09 23:45:41;;;;;;;5.95;3.58;;;;;;;;;;6128372;23;20177;-88
2022/08/09 23:48:51;;;;;;;7.10;3.03;;;;;;;;;;6130579;23;20222;-90
2022/08/09 23:51:58;;;;;;;4.72;3.03;;;;;;;;;;6129328;23;20252;-91
2022/08/09 23:55:04;;;;;;;6.60;3.83;;;;;;;;;;6129229;23;20157;-88
2022/08/09 23:58:10;;;;;;;4.97;3.20;;;;;;;;;;6130959;23;20610;-88
